sensor_id;sensor_type;location;lat;lon;timestamp;P1;durP1;ratioP1;P2;durP2;ratioP2
12059;SDS011;6091;51.432;6.880;2023-02-15T00:00:05;0.80;;;0.80;;
12059;SDS011;6091;51.432;6.880;2023-02-15T00:02:36;0.90;;;0.88;;
12059;SDS011;6091;51.432;6.880;2023-02-15T00:05:03;0.70;;;0.70;;
12059;SDS011;6091;51.432;6.880;2023-02-15T00:07:31;0.70;;;0.70;;
12059;SDS011;6091;51.432;6.880;2023-02-15T00:09:58;0.77;;;0.77;;
12059;SDS011;6091;51.432;6.880;2023-02-15T00:12:25;0.70;;;0.70;;
12059;SDS011;6091;51.432;6.880;2023-02-15T00:14:52;0.73;;;0.73;;
12059;SDS011;6091;51.432;6.880;2023-02-15T00:17:19;0.80;;;0.80;;
12059;SDS011;6091;51.432;6.880;2023-02-15T00:19:47;0.90;;;0.80;;
12059;SDS011;6091;51.432;6.880;2023-02-15T00:22:14;0.75;;;0.75;;
12059;SDS011;6091;51.432;6.880;2023-02-15T00:24:41;0.93;;;0.93;;
12059;SDS011;6091;51.432;6.880;2023-02-15T00:27:08;0.70;;;0.70;;
12059;SDS011;6091;51.432;6.880;2023-02-15T00:29:35;0.63;;;0.63;;
12059;SDS011;6091;51.432;6.880;2023-02-15T00:32:02;0.60;;;0.60;;
12059;SDS011;6091;51.432;6.880;2023-02-15T00:34:29;0.70;;;0.70;;
12059;SDS011;6091;51.432;6.880;2023-02-15T00:36:56;0.70;;;0.70;;
12059;SDS011;6091;51.432;6.880;2023-02-15T00:39:23;0.60;;;0.60;;
12059;SDS011;6091;51.432;6.880;2023-02-15T00:41:50;0.73;;;0.73;;
12059;SDS011;6091;51.432;6.880;2023-02-15T00:44:17;0.70;;;0.70;;
12059;SDS011;6091;51.432;6.880;2023-02-15T00:46:44;0.85;;;0.80;;
12059;SDS011;6091;51.432;6.880;2023-02-15T00:49:11;0.73;;;0.73;;
12059;SDS011;6091;51.432;6.880;2023-02-15T00:51:38;0.70;;;0.70;;
12059;SDS011;6091;51.432;6.880;2023-02-15T00:54:05;0.80;;;0.80;;
12059;SDS011;6091;51.432;6.880;2023-02-15T00:56:33;0.77;;;0.77;;
12059;SDS011;6091;51.432;6.880;2023-02-15T00:59:00;0.60;;;0.60;;
12059;SDS011;6091;51.432;6.880;2023-02-15T01:01:27;0.63;;;0.63;;
12059;SDS011;6091;51.432;6.880;2023-02-15T01:03:54;0.77;;;0.77;;
12059;SDS011;6091;51.432;6.880;2023-02-15T01:06:21;1.00;;;0.80;;
12059;SDS011;6091;51.432;6.880;2023-02-15T01:08:48;0.80;;;0.80;;
12059;SDS011;6091;51.432;6.880;2023-02-15T01:11:16;0.70;;;0.70;;
12059;SDS011;6091;51.432;6.880;2023-02-15T01:13:52;0.70;;;0.70;;
12059;SDS011;6091;51.432;6.880;2023-02-15T01:16:23;0.80;;;0.80;;
12059;SDS011;6091;51.432;6.880;2023-02-15T01:18:52;0.70;;;0.70;;
12059;SDS011;6091;51.432;6.880;2023-02-15T01:21:21;0.80;;;0.80;;
12059;SDS011;6091;51.432;6.880;2023-02-15T01:23:51;0.70;;;0.70;;
12059;SDS011;6091;51.432;6.880;2023-02-15T01:26:19;0.60;;;0.60;;
12059;SDS011;6091;51.432;6.880;2023-02-15T01:28:46;0.70;;;0.70;;
12059;SDS011;6091;51.432;6.880;2023-02-15T01:31:14;0.52;;;0.52;;
12059;SDS011;6091;51.432;6.880;2023-02-15T01:33:43;0.70;;;0.70;;
12059;SDS011;6091;51.432;6.880;2023-02-15T01:36:12;0.80;;;0.80;;
12059;SDS011;6091;51.432;6.880;2023-02-15T01:38:40;0.80;;;0.80;;
12059;SDS011;6091;51.432;6.880;2023-02-15T01:41:08;0.60;;;0.60;;
12059;SDS011;6091;51.432;6.880;2023-02-15T01:43:54;0.70;;;0.70;;
12059;SDS011;6091;51.432;6.880;2023-02-15T01:46:26;0.70;;;0.70;;
12059;SDS011;6091;51.432;6.880;2023-02-15T01:49:13;0.60;;;0.60;;
12059;SDS011;6091;51.432;6.880;2023-02-15T01:51:44;0.50;;;0.50;;
12059;SDS011;6091;51.432;6.880;2023-02-15T01:56:48;0.80;;;0.80;;
12059;SDS011;6091;51.432;6.880;2023-02-15T01:59:16;0.55;;;0.55;;
12059;SDS011;6091;51.432;6.880;2023-02-15T02:01:50;0.70;;;0.70;;
12059;SDS011;6091;51.432;6.880;2023-02-15T02:07:04;0.88;;;0.70;;
12059;SDS011;6091;51.432;6.880;2023-02-15T02:09:34;0.63;;;0.63;;
12059;SDS011;6091;51.432;6.880;2023-02-15T02:12:04;0.50;;;0.50;;
12059;SDS011;6091;51.432;6.880;2023-02-15T02:14:33;0.80;;;0.80;;
12059;SDS011;6091;51.432;6.880;2023-02-15T02:17:16;0.95;;;0.80;;
12059;SDS011;6091;51.432;6.880;2023-02-15T02:23:24;0.68;;;0.68;;
12059;SDS011;6091;51.432;6.880;2023-02-15T02:26:45;0.70;;;0.70;;
12059;SDS011;6091;51.432;6.880;2023-02-15T02:30:01;0.73;;;0.60;;
12059;SDS011;6091;51.432;6.880;2023-02-15T02:36:15;0.60;;;0.60;;
12059;SDS011;6091;51.432;6.880;2023-02-15T02:44:42;0.60;;;0.60;;
12059;SDS011;6091;51.432;6.880;2023-02-15T02:47:23;0.60;;;0.60;;
12059;SDS011;6091;51.432;6.880;2023-02-15T02:50:00;0.60;;;0.60;;
12059;SDS011;6091;51.432;6.880;2023-02-15T02:55:20;0.70;;;0.70;;
12059;SDS011;6091;51.432;6.880;2023-02-15T02:57:58;0.70;;;0.70;;
12059;SDS011;6091;51.432;6.880;2023-02-15T03:03:44;0.73;;;0.73;;
12059;SDS011;6091;51.432;6.880;2023-02-15T03:06:19;0.55;;;0.55;;
12059;SDS011;6091;51.432;6.880;2023-02-15T03:08:56;0.60;;;0.60;;
12059;SDS011;6091;51.432;6.880;2023-02-15T03:11:32;0.70;;;0.70;;
12059;SDS011;6091;51.432;6.880;2023-02-15T03:14:00;0.60;;;0.60;;
12059;SDS011;6091;51.432;6.880;2023-02-15T03:16:27;0.75;;;0.75;;
12059;SDS011;6091;51.432;6.880;2023-02-15T03:18:55;0.82;;;0.75;;
12059;SDS011;6091;51.432;6.880;2023-02-15T03:21:38;0.68;;;0.68;;
12059;SDS011;6091;51.432;6.880;2023-02-15T03:24:17;0.80;;;0.80;;
12059;SDS011;6091;51.432;6.880;2023-02-15T03:26:49;0.60;;;0.60;;
12059;SDS011;6091;51.432;6.880;2023-02-15T03:29:18;0.60;;;0.60;;
12059;SDS011;6091;51.432;6.880;2023-02-15T03:31:50;0.70;;;0.70;;
12059;SDS011;6091;51.432;6.880;2023-02-15T03:34:24;0.60;;;0.60;;
12059;SDS011;6091;51.432;6.880;2023-02-15T03:36:53;0.60;;;0.60;;
12059;SDS011;6091;51.432;6.880;2023-02-15T03:43:02;0.80;;;0.80;;
12059;SDS011;6091;51.432;6.880;2023-02-15T03:49:02;0.70;;;0.70;;
12059;SDS011;6091;51.432;6.880;2023-02-15T03:51:44;0.63;;;0.63;;
12059;SDS011;6091;51.432;6.880;2023-02-15T03:54:18;0.63;;;0.63;;
12059;SDS011;6091;51.432;6.880;2023-02-15T04:05:42;0.68;;;0.68;;
12059;SDS011;6091;51.432;6.880;2023-02-15T04:08:11;0.80;;;0.80;;
12059;SDS011;6091;51.432;6.880;2023-02-15T04:10:39;1.00;;;1.00;;
12059;SDS011;6091;51.432;6.880;2023-02-15T04:13:20;0.65;;;0.65;;
12059;SDS011;6091;51.432;6.880;2023-02-15T04:15:49;0.70;;;0.70;;
12059;SDS011;6091;51.432;6.880;2023-02-15T04:18:34;0.70;;;0.70;;
12059;SDS011;6091;51.432;6.880;2023-02-15T04:21:26;0.80;;;0.80;;
12059;SDS011;6091;51.432;6.880;2023-02-15T04:24:14;0.70;;;0.68;;
12059;SDS011;6091;51.432;6.880;2023-02-15T04:27:01;0.60;;;0.60;;
12059;SDS011;6091;51.432;6.880;2023-02-15T04:29:29;0.60;;;0.60;;
12059;SDS011;6091;51.432;6.880;2023-02-15T04:31:58;0.60;;;0.60;;
12059;SDS011;6091;51.432;6.880;2023-02-15T04:34:26;0.73;;;0.73;;
12059;SDS011;6091;51.432;6.880;2023-02-15T04:36:53;0.70;;;0.70;;
12059;SDS011;6091;51.432;6.880;2023-02-15T04:39:20;0.63;;;0.63;;
12059;SDS011;6091;51.432;6.880;2023-02-15T04:41:47;0.70;;;0.70;;
12059;SDS011;6091;51.432;6.880;2023-02-15T04:44:14;0.70;;;0.70;;
12059;SDS011;6091;51.432;6.880;2023-02-15T04:46:41;0.80;;;0.80;;
12059;SDS011;6091;51.432;6.880;2023-02-15T04:49:08;0.68;;;0.68;;
12059;SDS011;6091;51.432;6.880;2023-02-15T04:51:36;0.60;;;0.60;;
12059;SDS011;6091;51.432;6.880;2023-02-15T04:54:03;0.70;;;0.70;;
12059;SDS011;6091;51.432;6.880;2023-02-15T04:56:30;0.80;;;0.80;;
12059;SDS011;6091;51.432;6.880;2023-02-15T04:58:59;0.70;;;0.70;;
12059;SDS011;6091;51.432;6.880;2023-02-15T05:01:26;0.60;;;0.60;;
12059;SDS011;6091;51.432;6.880;2023-02-15T05:03:53;0.70;;;0.60;;
12059;SDS011;6091;51.432;6.880;2023-02-15T05:06:20;0.80;;;0.80;;
12059;SDS011;6091;51.432;6.880;2023-02-15T05:08:47;0.75;;;0.75;;
12059;SDS011;6091;51.432;6.880;2023-02-15T05:11:14;0.70;;;0.70;;
12059;SDS011;6091;51.432;6.880;2023-02-15T05:13:41;0.60;;;0.60;;
12059;SDS011;6091;51.432;6.880;2023-02-15T05:16:08;0.50;;;0.50;;
12059;SDS011;6091;51.432;6.880;2023-02-15T05:18:35;0.60;;;0.60;;
12059;SDS011;6091;51.432;6.880;2023-02-15T05:21:02;0.77;;;0.75;;
12059;SDS011;6091;51.432;6.880;2023-02-15T05:23:29;0.52;;;0.52;;
12059;SDS011;6091;51.432;6.880;2023-02-15T05:25:56;0.60;;;0.60;;
12059;SDS011;6091;51.432;6.880;2023-02-15T05:28:41;0.50;;;0.50;;
12059;SDS011;6091;51.432;6.880;2023-02-15T05:31:16;0.60;;;0.60;;
12059;SDS011;6091;51.432;6.880;2023-02-15T05:33:45;0.70;;;0.70;;
12059;SDS011;6091;51.432;6.880;2023-02-15T05:36:12;0.55;;;0.55;;
12059;SDS011;6091;51.432;6.880;2023-02-15T05:38:40;0.70;;;0.70;;
12059;SDS011;6091;51.432;6.880;2023-02-15T05:41:08;0.63;;;0.63;;
12059;SDS011;6091;51.432;6.880;2023-02-15T05:43:36;0.70;;;0.70;;
12059;SDS011;6091;51.432;6.880;2023-02-15T05:46:04;0.80;;;0.80;;
12059;SDS011;6091;51.432;6.880;2023-02-15T05:48:32;0.70;;;0.70;;
12059;SDS011;6091;51.432;6.880;2023-02-15T05:51:10;0.80;;;0.80;;
12059;SDS011;6091;51.432;6.880;2023-02-15T05:53:43;0.70;;;0.70;;
12059;SDS011;6091;51.432;6.880;2023-02-15T05:56:10;0.60;;;0.60;;
12059;SDS011;6091;51.432;6.880;2023-02-15T05:58:39;0.70;;;0.70;;
12059;SDS011;6091;51.432;6.880;2023-02-15T06:01:17;0.80;;;0.80;;
12059;SDS011;6091;51.432;6.880;2023-02-15T06:03:47;0.68;;;0.68;;
12059;SDS011;6091;51.432;6.880;2023-02-15T06:06:15;0.60;;;0.60;;
12059;SDS011;6091;51.432;6.880;2023-02-15T06:08:42;0.70;;;0.70;;
12059;SDS011;6091;51.432;6.880;2023-02-15T06:11:09;0.80;;;0.80;;
12059;SDS011;6091;51.432;6.880;2023-02-15T06:13:36;0.60;;;0.60;;
12059;SDS011;6091;51.432;6.880;2023-02-15T06:16:04;0.63;;;0.63;;
12059;SDS011;6091;51.432;6.880;2023-02-15T06:18:33;0.70;;;0.70;;
12059;SDS011;6091;51.432;6.880;2023-02-15T06:21:00;0.55;;;0.55;;
12059;SDS011;6091;51.432;6.880;2023-02-15T06:23:27;0.60;;;0.60;;
12059;SDS011;6091;51.432;6.880;2023-02-15T06:25:54;0.50;;;0.50;;
12059;SDS011;6091;51.432;6.880;2023-02-15T06:28:22;0.63;;;0.63;;
12059;SDS011;6091;51.432;6.880;2023-02-15T06:30:49;0.60;;;0.60;;
12059;SDS011;6091;51.432;6.880;2023-02-15T06:33:16;0.60;;;0.60;;
12059;SDS011;6091;51.432;6.880;2023-02-15T06:35:43;0.70;;;0.70;;
12059;SDS011;6091;51.432;6.880;2023-02-15T06:38:11;0.70;;;0.70;;
12059;SDS011;6091;51.432;6.880;2023-02-15T06:40:38;0.60;;;0.60;;
12059;SDS011;6091;51.432;6.880;2023-02-15T06:43:05;0.77;;;0.77;;
12059;SDS011;6091;51.432;6.880;2023-02-15T06:45:32;0.70;;;0.70;;
12059;SDS011;6091;51.432;6.880;2023-02-15T06:48:01;0.50;;;0.50;;
12059;SDS011;6091;51.432;6.880;2023-02-15T06:50:28;0.65;;;0.63;;
12059;SDS011;6091;51.432;6.880;2023-02-15T06:52:56;0.60;;;0.60;;
12059;SDS011;6091;51.432;6.880;2023-02-15T06:55:24;0.70;;;0.70;;
12059;SDS011;6091;51.432;6.880;2023-02-15T06:57:51;0.60;;;0.60;;
12059;SDS011;6091;51.432;6.880;2023-02-15T07:00:18;1.08;;;0.90;;
12059;SDS011;6091;51.432;6.880;2023-02-15T07:02:46;3.38;;;1.17;;
12059;SDS011;6091;51.432;6.880;2023-02-15T07:05:13;1.17;;;0.90;;
12059;SDS011;6091;51.432;6.880;2023-02-15T07:07:41;1.75;;;0.80;;
12059;SDS011;6091;51.432;6.880;2023-02-15T07:10:07;1.58;;;1.08;;
12059;SDS011;6091;51.432;6.880;2023-02-15T07:12:35;1.08;;;0.85;;
12059;SDS011;6091;51.432;6.880;2023-02-15T07:15:09;1.20;;;1.08;;
12059;SDS011;6091;51.432;6.880;2023-02-15T07:17:39;2.15;;;0.88;;
12059;SDS011;6091;51.432;6.880;2023-02-15T07:20:07;2.45;;;1.00;;
12059;SDS011;6091;51.432;6.880;2023-02-15T07:22:41;1.83;;;1.20;;
12059;SDS011;6091;51.432;6.880;2023-02-15T07:25:09;2.75;;;1.40;;
12059;SDS011;6091;51.432;6.880;2023-02-15T07:27:38;1.10;;;1.00;;
12059;SDS011;6091;51.432;6.880;2023-02-15T07:30:07;2.05;;;1.15;;
12059;SDS011;6091;51.432;6.880;2023-02-15T07:32:38;3.15;;;1.00;;
12059;SDS011;6091;51.432;6.880;2023-02-15T07:35:25;2.13;;;1.00;;
12059;SDS011;6091;51.432;6.880;2023-02-15T07:37:52;1.10;;;1.00;;
12059;SDS011;6091;51.432;6.880;2023-02-15T07:40:20;1.17;;;1.08;;
12059;SDS011;6091;51.432;6.880;2023-02-15T07:42:50;0.93;;;0.93;;
12059;SDS011;6091;51.432;6.880;2023-02-15T07:45:19;1.77;;;0.80;;
12059;SDS011;6091;51.432;6.880;2023-02-15T07:47:48;1.95;;;0.93;;
12059;SDS011;6091;51.432;6.880;2023-02-15T07:50:15;2.47;;;2.15;;
12059;SDS011;6091;51.432;6.880;2023-02-15T07:52:42;3.92;;;2.90;;
12059;SDS011;6091;51.432;6.880;2023-02-15T07:55:09;4.43;;;3.30;;
12059;SDS011;6091;51.432;6.880;2023-02-15T07:57:45;3.65;;;3.35;;
12059;SDS011;6091;51.432;6.880;2023-02-15T08:00:16;6.35;;;3.20;;
12059;SDS011;6091;51.432;6.880;2023-02-15T08:02:51;4.85;;;3.75;;
12059;SDS011;6091;51.432;6.880;2023-02-15T08:05:40;5.57;;;3.05;;
12059;SDS011;6091;51.432;6.880;2023-02-15T08:08:10;5.60;;;3.50;;
12059;SDS011;6091;51.432;6.880;2023-02-15T08:19:13;4.07;;;2.70;;
12059;SDS011;6091;51.432;6.880;2023-02-15T08:21:56;7.78;;;2.85;;
12059;SDS011;6091;51.432;6.880;2023-02-15T08:24:25;4.45;;;2.92;;
12059;SDS011;6091;51.432;6.880;2023-02-15T08:26:55;5.03;;;2.70;;
12059;SDS011;6091;51.432;6.880;2023-02-15T08:29:24;2.97;;;2.10;;
12059;SDS011;6091;51.432;6.880;2023-02-15T08:31:55;4.55;;;2.55;;
12059;SDS011;6091;51.432;6.880;2023-02-15T08:34:29;4.28;;;1.95;;
12059;SDS011;6091;51.432;6.880;2023-02-15T08:36:59;5.47;;;1.90;;
12059;SDS011;6091;51.432;6.880;2023-02-15T08:39:27;2.25;;;2.05;;
12059;SDS011;6091;51.432;6.880;2023-02-15T08:41:54;3.63;;;2.20;;
12059;SDS011;6091;51.432;6.880;2023-02-15T08:44:22;4.15;;;1.95;;
12059;SDS011;6091;51.432;6.880;2023-02-15T08:46:49;3.95;;;1.80;;
12059;SDS011;6091;51.432;6.880;2023-02-15T08:49:20;2.10;;;1.70;;
12059;SDS011;6091;51.432;6.880;2023-02-15T08:51:48;3.17;;;1.67;;
12059;SDS011;6091;51.432;6.880;2023-02-15T08:54:17;3.42;;;1.90;;
12059;SDS011;6091;51.432;6.880;2023-02-15T08:56:47;2.92;;;1.65;;
12059;SDS011;6091;51.432;6.880;2023-02-15T08:59:18;2.15;;;1.63;;
12059;SDS011;6091;51.432;6.880;2023-02-15T09:01:49;3.38;;;1.38;;
12059;SDS011;6091;51.432;6.880;2023-02-15T09:04:20;2.08;;;1.40;;
12059;SDS011;6091;51.432;6.880;2023-02-15T09:06:48;3.05;;;1.60;;
12059;SDS011;6091;51.432;6.880;2023-02-15T09:09:17;2.88;;;1.35;;
12059;SDS011;6091;51.432;6.880;2023-02-15T09:11:46;1.55;;;1.30;;
12059;SDS011;6091;51.432;6.880;2023-02-15T09:14:24;2.20;;;1.30;;
12059;SDS011;6091;51.432;6.880;2023-02-15T09:16:53;3.35;;;1.33;;
12059;SDS011;6091;51.432;6.880;2023-02-15T09:19:21;1.33;;;1.20;;
12059;SDS011;6091;51.432;6.880;2023-02-15T09:21:49;1.33;;;1.23;;
12059;SDS011;6091;51.432;6.880;2023-02-15T09:24:16;1.85;;;1.30;;
12059;SDS011;6091;51.432;6.880;2023-02-15T09:26:45;1.67;;;1.27;;
12059;SDS011;6091;51.432;6.880;2023-02-15T09:29:15;1.50;;;1.40;;
12059;SDS011;6091;51.432;6.880;2023-02-15T09:31:44;1.40;;;1.30;;
12059;SDS011;6091;51.432;6.880;2023-02-15T09:34:16;1.23;;;1.13;;
12059;SDS011;6091;51.432;6.880;2023-02-15T09:36:49;1.40;;;1.00;;
12059;SDS011;6091;51.432;6.880;2023-02-15T09:39:19;2.92;;;1.20;;
12059;SDS011;6091;51.432;6.880;2023-02-15T09:50:58;1.00;;;0.90;;
12059;SDS011;6091;51.432;6.880;2023-02-15T09:56:31;0.90;;;0.90;;
12059;SDS011;6091;51.432;6.880;2023-02-15T10:02:27;1.40;;;0.93;;
12059;SDS011;6091;51.432;6.880;2023-02-15T10:08:25;0.70;;;0.70;;
12059;SDS011;6091;51.432;6.880;2023-02-15T10:18:25;0.80;;;0.80;;
12059;SDS011;6091;51.432;6.880;2023-02-15T10:24:35;0.70;;;0.70;;
12059;SDS011;6091;51.432;6.880;2023-02-15T10:27:20;0.80;;;0.80;;
12059;SDS011;6091;51.432;6.880;2023-02-15T10:32:36;0.85;;;0.85;;
12059;SDS011;6091;51.432;6.880;2023-02-15T10:47:38;0.73;;;0.73;;
12059;SDS011;6091;51.432;6.880;2023-02-15T10:53:17;0.77;;;0.77;;
12059;SDS011;6091;51.432;6.880;2023-02-15T10:56:31;0.88;;;0.70;;
12059;SDS011;6091;51.432;6.880;2023-02-15T11:08:08;0.68;;;0.68;;
12059;SDS011;6091;51.432;6.880;2023-02-15T11:13:18;0.80;;;0.77;;
12059;SDS011;6091;51.432;6.880;2023-02-15T11:15:55;0.73;;;0.65;;
12059;SDS011;6091;51.432;6.880;2023-02-15T11:19:05;0.65;;;0.65;;
12059;SDS011;6091;51.432;6.880;2023-02-15T11:21:42;0.70;;;0.70;;
12059;SDS011;6091;51.432;6.880;2023-02-15T11:24:17;0.63;;;0.63;;
12059;SDS011;6091;51.432;6.880;2023-02-15T11:32:46;0.50;;;0.50;;
12059;SDS011;6091;51.432;6.880;2023-02-15T11:38:06;0.50;;;0.50;;
12059;SDS011;6091;51.432;6.880;2023-02-15T11:40:48;0.60;;;0.60;;
12059;SDS011;6091;51.432;6.880;2023-02-15T11:43:20;0.75;;;0.60;;
12059;SDS011;6091;51.432;6.880;2023-02-15T11:45:55;0.70;;;0.70;;
12059;SDS011;6091;51.432;6.880;2023-02-15T11:48:22;0.50;;;0.50;;
12059;SDS011;6091;51.432;6.880;2023-02-15T11:50:50;0.50;;;0.50;;
12059;SDS011;6091;51.432;6.880;2023-02-15T11:53:17;0.55;;;0.55;;
12059;SDS011;6091;51.432;6.880;2023-02-15T11:55:48;0.55;;;0.55;;
12059;SDS011;6091;51.432;6.880;2023-02-15T12:01:00;0.50;;;0.50;;
12059;SDS011;6091;51.432;6.880;2023-02-15T12:03:39;0.60;;;0.60;;
12059;SDS011;6091;51.432;6.880;2023-02-15T12:06:33;0.40;;;0.40;;
12059;SDS011;6091;51.432;6.880;2023-02-15T12:12:46;0.47;;;0.47;;
12059;SDS011;6091;51.432;6.880;2023-02-15T12:15:13;0.57;;;0.57;;
12059;SDS011;6091;51.432;6.880;2023-02-15T12:17:55;0.50;;;0.50;;
12059;SDS011;6091;51.432;6.880;2023-02-15T12:20:28;0.55;;;0.55;;
12059;SDS011;6091;51.432;6.880;2023-02-15T12:28:05;0.40;;;0.40;;
12059;SDS011;6091;51.432;6.880;2023-02-15T12:31:25;0.43;;;0.43;;
12059;SDS011;6091;51.432;6.880;2023-02-15T12:34:07;0.57;;;0.57;;
12059;SDS011;6091;51.432;6.880;2023-02-15T12:36:53;0.40;;;0.40;;
12059;SDS011;6091;51.432;6.880;2023-02-15T12:39:25;0.50;;;0.50;;
12059;SDS011;6091;51.432;6.880;2023-02-15T12:42:02;0.50;;;0.50;;
12059;SDS011;6091;51.432;6.880;2023-02-15T12:44:52;0.43;;;0.43;;
12059;SDS011;6091;51.432;6.880;2023-02-15T12:47:30;0.55;;;0.55;;
12059;SDS011;6091;51.432;6.880;2023-02-15T12:50:10;0.50;;;0.50;;
12059;SDS011;6091;51.432;6.880;2023-02-15T12:52:48;0.50;;;0.50;;
12059;SDS011;6091;51.432;6.880;2023-02-15T12:55:19;0.45;;;0.45;;
12059;SDS011;6091;51.432;6.880;2023-02-15T12:58:12;0.40;;;0.40;;
12059;SDS011;6091;51.432;6.880;2023-02-15T13:01:01;0.57;;;0.57;;
12059;SDS011;6091;51.432;6.880;2023-02-15T13:06:33;0.40;;;0.40;;
12059;SDS011;6091;51.432;6.880;2023-02-15T13:09:19;0.50;;;0.50;;
12059;SDS011;6091;51.432;6.880;2023-02-15T13:14:48;0.57;;;0.57;;
12059;SDS011;6091;51.432;6.880;2023-02-15T13:17:19;0.50;;;0.50;;
12059;SDS011;6091;51.432;6.880;2023-02-15T13:19:56;0.50;;;0.50;;
12059;SDS011;6091;51.432;6.880;2023-02-15T13:22:38;0.50;;;0.50;;
12059;SDS011;6091;51.432;6.880;2023-02-15T13:25:13;0.50;;;0.50;;
12059;SDS011;6091;51.432;6.880;2023-02-15T13:28:16;0.45;;;0.45;;
12059;SDS011;6091;51.432;6.880;2023-02-15T13:30:48;0.40;;;0.40;;
12059;SDS011;6091;51.432;6.880;2023-02-15T13:38:56;0.50;;;0.50;;
12059;SDS011;6091;51.432;6.880;2023-02-15T14:05:57;0.30;;;0.30;;
12059;SDS011;6091;51.432;6.880;2023-02-15T14:16:59;0.50;;;0.50;;
12059;SDS011;6091;51.432;6.880;2023-02-15T14:25:20;0.45;;;0.45;;
12059;SDS011;6091;51.432;6.880;2023-02-15T14:28:24;0.32;;;0.32;;
12059;SDS011;6091;51.432;6.880;2023-02-15T14:31:05;0.50;;;0.50;;
12059;SDS011;6091;51.432;6.880;2023-02-15T14:33:40;0.40;;;0.40;;
12059;SDS011;6091;51.432;6.880;2023-02-15T14:36:19;0.40;;;0.40;;
12059;SDS011;6091;51.432;6.880;2023-02-15T14:38:50;0.40;;;0.40;;
12059;SDS011;6091;51.432;6.880;2023-02-15T14:45:40;0.40;;;0.40;;
12059;SDS011;6091;51.432;6.880;2023-02-15T14:47:39;0.43;;;0.43;;
12059;SDS011;6091;51.432;6.880;2023-02-15T14:50:47;0.50;;;0.50;;
12059;SDS011;6091;51.432;6.880;2023-02-15T14:53:14;0.40;;;0.40;;
12059;SDS011;6091;51.432;6.880;2023-02-15T15:01:16;0.50;;;0.50;;
12059;SDS011;6091;51.432;6.880;2023-02-15T15:03:59;0.30;;;0.30;;
12059;SDS011;6091;51.432;6.880;2023-02-15T15:06:38;0.40;;;0.40;;
12059;SDS011;6091;51.432;6.880;2023-02-15T15:09:11;0.30;;;0.30;;
12059;SDS011;6091;51.432;6.880;2023-02-15T15:14:48;0.40;;;0.40;;
12059;SDS011;6091;51.432;6.880;2023-02-15T15:20:11;0.40;;;0.40;;
12059;SDS011;6091;51.432;6.880;2023-02-15T15:34:12;0.40;;;0.40;;
12059;SDS011;6091;51.432;6.880;2023-02-15T15:43:48;0.40;;;0.40;;
12059;SDS011;6091;51.432;6.880;2023-02-15T15:46:55;0.40;;;0.40;;
12059;SDS011;6091;51.432;6.880;2023-02-15T15:49:32;0.40;;;0.40;;
12059;SDS011;6091;51.432;6.880;2023-02-15T15:52:02;0.35;;;0.35;;
12059;SDS011;6091;51.432;6.880;2023-02-15T15:54:40;0.40;;;0.40;;
12059;SDS011;6091;51.432;6.880;2023-02-15T15:57:16;0.40;;;0.40;;
12059;SDS011;6091;51.432;6.880;2023-02-15T16:00:00;0.35;;;0.35;;
12059;SDS011;6091;51.432;6.880;2023-02-15T16:02:29;0.40;;;0.40;;
12059;SDS011;6091;51.432;6.880;2023-02-15T16:05:05;0.30;;;0.30;;
12059;SDS011;6091;51.432;6.880;2023-02-15T16:07:35;0.40;;;0.40;;
12059;SDS011;6091;51.432;6.880;2023-02-15T16:10:03;0.20;;;0.20;;
12059;SDS011;6091;51.432;6.880;2023-02-15T16:12:34;0.40;;;0.40;;
12059;SDS011;6091;51.432;6.880;2023-02-15T16:15:13;0.52;;;0.52;;
12059;SDS011;6091;51.432;6.880;2023-02-15T16:17:50;0.40;;;0.40;;
12059;SDS011;6091;51.432;6.880;2023-02-15T16:20:34;0.38;;;0.38;;
12059;SDS011;6091;51.432;6.880;2023-02-15T16:28:49;0.47;;;0.47;;
12059;SDS011;6091;51.432;6.880;2023-02-15T16:31:18;0.40;;;0.40;;
12059;SDS011;6091;51.432;6.880;2023-02-15T16:33:51;0.40;;;0.40;;
12059;SDS011;6091;51.432;6.880;2023-02-15T16:36:25;0.40;;;0.40;;
12059;SDS011;6091;51.432;6.880;2023-02-15T16:41:23;0.40;;;0.40;;
12059;SDS011;6091;51.432;6.880;2023-02-15T16:43:54;0.50;;;0.50;;
12059;SDS011;6091;51.432;6.880;2023-02-15T16:49:27;0.45;;;0.45;;
12059;SDS011;6091;51.432;6.880;2023-02-15T16:51:59;0.50;;;0.50;;
12059;SDS011;6091;51.432;6.880;2023-02-15T16:54:33;0.30;;;0.30;;
12059;SDS011;6091;51.432;6.880;2023-02-15T16:57:01;0.50;;;0.50;;
12059;SDS011;6091;51.432;6.880;2023-02-15T16:59:31;0.40;;;0.40;;
12059;SDS011;6091;51.432;6.880;2023-02-15T17:02:13;0.30;;;0.30;;
12059;SDS011;6091;51.432;6.880;2023-02-15T17:07:39;0.55;;;0.50;;
12059;SDS011;6091;51.432;6.880;2023-02-15T17:10:26;0.30;;;0.30;;
12059;SDS011;6091;51.432;6.880;2023-02-15T17:13:00;0.70;;;0.47;;
12059;SDS011;6091;51.432;6.880;2023-02-15T17:15:40;0.40;;;0.40;;
12059;SDS011;6091;51.432;6.880;2023-02-15T17:21:00;0.40;;;0.40;;
12059;SDS011;6091;51.432;6.880;2023-02-15T17:26:23;0.43;;;0.43;;
12059;SDS011;6091;51.432;6.880;2023-02-15T17:28:58;0.50;;;0.50;;
12059;SDS011;6091;51.432;6.880;2023-02-15T17:31:36;0.40;;;0.40;;
12059;SDS011;6091;51.432;6.880;2023-02-15T17:34:04;0.30;;;0.30;;
12059;SDS011;6091;51.432;6.880;2023-02-15T17:36:31;0.50;;;0.50;;
12059;SDS011;6091;51.432;6.880;2023-02-15T17:41:44;0.50;;;0.50;;
12059;SDS011;6091;51.432;6.880;2023-02-15T17:44:13;0.50;;;0.50;;
12059;SDS011;6091;51.432;6.880;2023-02-15T17:46:41;0.32;;;0.32;;
12059;SDS011;6091;51.432;6.880;2023-02-15T17:49:23;0.57;;;0.50;;
12059;SDS011;6091;51.432;6.880;2023-02-15T17:52:00;0.52;;;0.52;;
12059;SDS011;6091;51.432;6.880;2023-02-15T17:54:28;0.43;;;0.43;;
12059;SDS011;6091;51.432;6.880;2023-02-15T17:57:14;0.40;;;0.40;;
12059;SDS011;6091;51.432;6.880;2023-02-15T17:59:42;0.50;;;0.47;;
12059;SDS011;6091;51.432;6.880;2023-02-15T18:02:29;0.43;;;0.43;;
12059;SDS011;6091;51.432;6.880;2023-02-15T18:05:19;0.50;;;0.50;;
12059;SDS011;6091;51.432;6.880;2023-02-15T18:08:12;0.50;;;0.50;;
12059;SDS011;6091;51.432;6.880;2023-02-15T18:11:01;0.30;;;0.30;;
12059;SDS011;6091;51.432;6.880;2023-02-15T18:13:47;0.43;;;0.43;;
12059;SDS011;6091;51.432;6.880;2023-02-15T18:16:14;0.50;;;0.50;;
12059;SDS011;6091;51.432;6.880;2023-02-15T18:18:49;0.40;;;0.40;;
12059;SDS011;6091;51.432;6.880;2023-02-15T18:21:17;0.63;;;0.63;;
12059;SDS011;6091;51.432;6.880;2023-02-15T18:23:45;0.55;;;0.50;;
12059;SDS011;6091;51.432;6.880;2023-02-15T18:26:16;0.52;;;0.52;;
12059;SDS011;6091;51.432;6.880;2023-02-15T18:28:47;0.50;;;0.50;;
12059;SDS011;6091;51.432;6.880;2023-02-15T18:31:16;0.50;;;0.50;;
12059;SDS011;6091;51.432;6.880;2023-02-15T18:34:03;1.27;;;0.50;;
12059;SDS011;6091;51.432;6.880;2023-02-15T18:36:39;0.50;;;0.50;;
12059;SDS011;6091;51.432;6.880;2023-02-15T18:39:28;0.38;;;0.38;;
12059;SDS011;6091;51.432;6.880;2023-02-15T18:42:03;0.40;;;0.40;;
12059;SDS011;6091;51.432;6.880;2023-02-15T18:44:31;0.45;;;0.45;;
12059;SDS011;6091;51.432;6.880;2023-02-15T18:46:58;0.35;;;0.35;;
12059;SDS011;6091;51.432;6.880;2023-02-15T18:49:25;0.50;;;0.50;;
12059;SDS011;6091;51.432;6.880;2023-02-15T18:51:52;0.50;;;0.50;;
12059;SDS011;6091;51.432;6.880;2023-02-15T18:54:23;0.40;;;0.40;;
12059;SDS011;6091;51.432;6.880;2023-02-15T18:56:53;0.40;;;0.40;;
12059;SDS011;6091;51.432;6.880;2023-02-15T18:59:24;0.40;;;0.40;;
12059;SDS011;6091;51.432;6.880;2023-02-15T19:01:55;0.50;;;0.50;;
12059;SDS011;6091;51.432;6.880;2023-02-15T19:04:24;0.40;;;0.40;;
12059;SDS011;6091;51.432;6.880;2023-02-15T19:06:51;0.50;;;0.50;;
12059;SDS011;6091;51.432;6.880;2023-02-15T19:09:21;0.40;;;0.40;;
12059;SDS011;6091;51.432;6.880;2023-02-15T19:11:51;0.40;;;0.40;;
12059;SDS011;6091;51.432;6.880;2023-02-15T19:14:28;0.50;;;0.50;;
12059;SDS011;6091;51.432;6.880;2023-02-15T19:16:58;0.30;;;0.30;;
12059;SDS011;6091;51.432;6.880;2023-02-15T19:19:26;0.50;;;0.50;;
12059;SDS011;6091;51.432;6.880;2023-02-15T19:21:53;0.50;;;0.50;;
12059;SDS011;6091;51.432;6.880;2023-02-15T19:24:32;0.43;;;0.43;;
12059;SDS011;6091;51.432;6.880;2023-02-15T19:27:06;0.50;;;0.50;;
12059;SDS011;6091;51.432;6.880;2023-02-15T19:29:46;0.40;;;0.40;;